createdAt,value
2022-11-21T00:01:46.458Z,100.00
2022-11-21T00:04:20.284Z,100.00
2022-11-21T00:06:55.301Z,100.00
2022-11-21T00:09:29.705Z,100.00
2022-11-21T00:12:03.327Z,100.00
2022-11-21T00:14:37.160Z,100.00
2022-11-21T00:17:11.098Z,100.00
2022-11-21T00:19:44.940Z,100.00
2022-11-21T00:22:19.884Z,100.00
2022-11-21T00:24:54.430Z,100.00
2022-11-21T00:27:28.324Z,100.00
2022-11-21T00:30:02.118Z,100.00
2022-11-21T00:32:36.052Z,100.00
2022-11-21T00:35:10.091Z,100.00
2022-11-21T00:37:45.154Z,100.00
2022-11-21T00:40:19.246Z,100.00
2022-11-21T00:42:52.882Z,100.00
2022-11-21T00:45:26.785Z,100.00
2022-11-21T00:48:00.354Z,100.00
2022-11-21T00:50:34.222Z,100.00
2022-11-21T00:53:09.246Z,100.00
2022-11-21T00:55:43.653Z,100.00
2022-11-21T00:58:17.511Z,100.00
2022-11-21T01:00:51.443Z,100.00
2022-11-21T01:03:25.184Z,100.00
2022-11-21T01:06:02.574Z,100.00
2022-11-21T01:08:39.514Z,100.00
2022-11-21T01:11:14.951Z,100.00
2022-11-21T01:13:49.918Z,100.00
2022-11-21T01:16:25.682Z,100.00
2022-11-21T01:18:59.561Z,100.00
2022-11-21T01:21:33.548Z,100.00
2022-11-21T01:24:11.935Z,100.00
2022-11-21T01:26:45.772Z,100.00
2022-11-21T01:29:19.507Z,100.00
2022-11-21T01:31:53.203Z,100.00
2022-11-21T01:34:27.037Z,100.00
2022-11-21T01:37:01.249Z,100.00
2022-11-21T01:39:36.301Z,100.00
2022-11-21T01:42:13.730Z,100.00
2022-11-21T01:44:50.346Z,100.00
2022-11-21T01:47:24.180Z,100.00
2022-11-21T01:49:57.899Z,100.00
2022-11-21T01:52:34.954Z,100.00
2022-11-21T01:55:12.159Z,100.00
2022-11-21T01:57:49.544Z,100.00
2022-11-21T02:00:25.854Z,100.00
2022-11-21T02:03:04.500Z,100.00
2022-11-21T02:05:40.159Z,100.00
2022-11-21T02:08:18.896Z,100.00
2022-11-21T02:11:03.974Z,100.00
2022-11-21T02:13:37.877Z,100.00
2022-11-21T02:16:11.488Z,100.00
2022-11-21T02:18:45.488Z,100.00
2022-11-21T02:21:29.650Z,100.00
2022-11-21T02:24:09.858Z,100.00
2022-11-21T02:26:47.676Z,100.00
2022-11-21T02:29:21.591Z,100.00
2022-11-21T02:31:55.106Z,100.00
2022-11-21T02:34:29.003Z,100.00
2022-11-21T02:37:03.502Z,100.00
2022-11-21T02:39:38.885Z,100.00
2022-11-21T02:42:20.921Z,100.00
2022-11-21T02:45:07.470Z,100.00
2022-11-21T02:47:42.830Z,100.00
2022-11-21T02:50:23.934Z,100.00
2022-11-21T02:52:57.588Z,100.00
2022-11-21T02:55:31.300Z,100.00
2022-11-21T02:58:06.902Z,100.00
2022-11-21T03:00:43.096Z,100.00
2022-11-21T03:03:16.937Z,100.00
2022-11-21T03:05:50.735Z,100.00
2022-11-21T03:08:24.263Z,100.00
2022-11-21T03:10:58.007Z,100.00
2022-11-21T03:13:33.001Z,100.00
2022-11-21T03:16:06.951Z,100.00
2022-11-21T03:18:40.525Z,100.00
2022-11-21T03:21:14.307Z,100.00
2022-11-21T03:23:47.912Z,100.00
2022-11-21T03:26:21.705Z,100.00
2022-11-21T03:28:56.542Z,100.00
2022-11-21T03:31:30.263Z,100.00
2022-11-21T03:34:04.139Z,100.00
2022-11-21T03:36:37.884Z,100.00
2022-11-21T03:39:11.362Z,100.00
2022-11-21T03:41:45.158Z,100.00
2022-11-21T03:44:20.125Z,100.00
2022-11-21T03:46:53.836Z,100.00
2022-11-21T03:49:27.753Z,100.00
2022-11-21T03:52:01.529Z,100.00
2022-11-21T03:54:35.112Z,100.00
2022-11-21T03:57:09.012Z,100.00
2022-11-21T03:59:43.947Z,100.00
2022-11-21T04:02:17.690Z,100.00
2022-11-21T04:04:51.383Z,100.00
2022-11-21T04:07:25.949Z,100.00
2022-11-21T04:09:59.614Z,100.00
2022-11-21T04:12:33.441Z,100.00
2022-11-21T04:15:13.345Z,100.00
2022-11-21T04:17:47.443Z,100.00
2022-11-21T04:20:21.214Z,100.00
2022-11-21T04:22:54.983Z,100.00
2022-11-21T04:25:28.692Z,100.00
2022-11-21T04:28:03.938Z,100.00
2022-11-21T04:30:38.939Z,100.00
2022-11-21T04:33:13.440Z,100.00
2022-11-21T04:35:48.271Z,100.00
2022-11-21T04:38:22.049Z,100.00
2022-11-21T04:40:55.590Z,100.00
2022-11-21T04:43:29.431Z,100.00
2022-11-21T04:46:04.386Z,100.00
2022-11-21T04:48:38.258Z,100.00
2022-11-21T04:51:11.896Z,100.00
2022-11-21T04:53:45.875Z,100.00
2022-11-21T04:56:19.601Z,100.00
2022-11-21T04:58:53.708Z,100.00
2022-11-21T05:01:28.781Z,100.00
2022-11-21T05:04:02.578Z,100.00
2022-11-21T05:06:36.139Z,100.00
2022-11-21T05:09:09.919Z,100.00
2022-11-21T05:12:01.653Z,100.00
2022-11-21T05:14:35.400Z,100.00
2022-11-21T05:17:10.431Z,100.00
2022-11-21T05:19:44.215Z,100.00
2022-11-21T05:22:17.859Z,100.00
2022-11-21T05:24:51.528Z,100.00
2022-11-21T05:27:25.121Z,100.00
2022-11-21T05:29:58.845Z,100.00
2022-11-21T05:32:33.849Z,100.00
2022-11-21T05:35:08.351Z,100.00
2022-11-21T05:37:41.887Z,100.00
2022-11-21T05:40:16.180Z,100.00
2022-11-21T05:43:18.962Z,100.00
2022-11-21T05:45:53.017Z,100.00
2022-11-21T05:48:27.946Z,100.00
2022-11-21T05:51:01.676Z,100.00
2022-11-21T05:53:35.855Z,100.00
2022-11-21T05:56:11.876Z,100.00
2022-11-21T05:58:45.927Z,100.00
2022-11-21T06:01:40.121Z,100.00
2022-11-21T06:04:14.044Z,100.00
2022-11-21T06:06:47.931Z,100.00
2022-11-21T06:09:21.531Z,100.00
2022-11-21T06:11:55.270Z,100.00
2022-11-21T06:14:29.036Z,100.00
2022-11-21T06:17:02.981Z,100.00
2022-11-21T06:19:38.110Z,100.00
2022-11-21T06:22:12.111Z,100.00
2022-11-21T06:24:45.804Z,100.00
2022-11-21T06:27:19.722Z,100.00
2022-11-21T06:29:53.354Z,100.00
2022-11-21T06:32:27.287Z,100.00
2022-11-21T06:35:02.246Z,100.00
2022-11-21T06:37:36.189Z,100.00
2022-11-21T06:40:11.188Z,100.00
2022-11-21T06:42:45.037Z,100.00
2022-11-21T06:45:18.799Z,100.00
2022-11-21T06:47:52.672Z,100.00
2022-11-21T06:50:28.023Z,100.00
2022-11-21T06:53:02.062Z,100.00
2022-11-21T06:55:35.804Z,100.00
2022-11-21T06:58:09.589Z,100.00
2022-11-21T07:00:44.303Z,100.00
2022-11-21T07:03:18.381Z,100.00
2022-11-21T07:05:58.496Z,100.00
2022-11-21T07:08:34.183Z,100.00
2022-11-21T07:11:24.501Z,100.00
2022-11-21T07:13:58.868Z,100.00
2022-11-21T07:16:32.467Z,100.00
2022-11-21T07:19:06.483Z,100.00
2022-11-21T07:21:43.127Z,100.00
2022-11-21T07:24:17.045Z,100.00
2022-11-21T07:26:50.692Z,100.00
2022-11-21T07:29:24.698Z,100.00
2022-11-21T07:31:58.428Z,100.00
2022-11-21T07:34:32.130Z,100.00
2022-11-21T07:37:07.145Z,100.00
2022-11-21T07:39:41.061Z,100.00
2022-11-21T07:42:14.755Z,100.00
2022-11-21T07:44:48.767Z,100.00
2022-11-21T07:47:22.259Z,100.00
2022-11-21T07:49:55.985Z,100.00
2022-11-21T07:52:31.094Z,100.00
2022-11-21T07:55:06.146Z,100.00
2022-11-21T07:57:39.945Z,100.00
2022-11-21T08:00:15.217Z,100.00
2022-11-21T08:02:48.892Z,100.00
2022-11-21T08:05:22.909Z,100.00
2022-11-21T08:07:58.047Z,100.00
2022-11-21T08:10:31.859Z,100.00
2022-11-21T08:13:05.438Z,100.00
2022-11-21T08:15:39.584Z,100.00
2022-11-21T08:18:15.314Z,100.00
2022-11-21T08:20:49.344Z,100.00
2022-11-21T08:23:24.280Z,100.00
2022-11-21T08:25:58.127Z,100.00
2022-11-21T08:28:31.761Z,100.00
2022-11-21T08:31:06.943Z,100.00
2022-11-21T08:33:40.555Z,100.00
2022-11-21T08:36:14.300Z,100.00
2022-11-21T08:38:49.250Z,100.00
2022-11-21T08:41:40.462Z,100.00
2022-11-21T08:44:14.490Z,100.00
2022-11-21T08:46:48.409Z,100.00
2022-11-21T08:49:21.995Z,100.00
2022-11-21T08:51:56.153Z,100.00
2022-11-21T08:54:31.407Z,100.00
2022-11-21T08:57:05.447Z,100.00
2022-11-21T08:59:39.598Z,100.00
2022-11-21T09:02:15.153Z,100.00
2022-11-21T09:04:50.802Z,100.00
2022-11-21T09:07:26.159Z,100.00
2022-11-21T09:10:01.980Z,100.00
2022-11-21T09:12:37.436Z,100.00
2022-11-21T09:15:30.233Z,100.00
2022-11-21T09:18:08.084Z,100.00
2022-11-21T09:20:45.663Z,100.00
2022-11-21T09:23:20.866Z,100.00
2022-11-21T09:25:56.431Z,100.00
2022-11-21T09:28:30.290Z,100.00
2022-11-21T09:31:05.007Z,100.00
2022-11-21T09:33:38.925Z,100.00
2022-11-21T09:36:12.661Z,100.00
2022-11-21T09:38:46.875Z,100.00
2022-11-21T09:41:49.867Z,100.00
2022-11-21T09:44:51.085Z,100.00
2022-11-21T09:47:27.886Z,100.00
2022-11-21T09:50:03.106Z,100.00
2022-11-21T09:52:42.658Z,100.00
2022-11-21T09:55:25.175Z,100.00
2022-11-21T09:58:03.726Z,100.00
2022-11-21T10:00:37.366Z,100.00
2022-11-21T10:03:16.682Z,100.00
2022-11-21T10:05:59.428Z,100.00
2022-11-21T10:08:42.731Z,100.00
2022-11-21T10:11:25.309Z,100.00
2022-11-21T10:14:11.145Z,100.00
2022-11-21T10:16:53.511Z,100.00
2022-11-21T10:19:53.828Z,100.00
2022-11-21T10:22:43.441Z,100.00
2022-11-21T10:25:26.944Z,100.00
2022-11-21T10:28:06.056Z,100.00
2022-11-21T10:30:45.161Z,100.00
2022-11-21T10:33:27.091Z,100.00
2022-11-21T10:36:07.037Z,100.00
2022-11-21T10:38:44.308Z,100.00
2022-11-21T10:41:24.377Z,100.00
2022-11-21T10:44:29.507Z,100.00
2022-11-21T10:47:14.994Z,100.00
2022-11-21T10:49:50.474Z,100.00
2022-11-21T10:52:28.415Z,100.00
2022-11-21T10:55:06.917Z,100.00
2022-11-21T10:57:45.259Z,100.00
2022-11-21T11:00:25.323Z,100.00
2022-11-21T11:03:07.110Z,100.00
2022-11-21T11:05:41.581Z,100.00
2022-11-21T11:08:16.021Z,100.00
2022-11-21T11:11:03.644Z,100.00
2022-11-21T11:13:56.301Z,100.00
2022-11-21T11:16:34.068Z,100.00
2022-11-21T11:19:32.676Z,100.00
2022-11-21T11:22:28.405Z,100.00
2022-11-21T11:25:05.725Z,100.00
2022-11-21T11:27:39.510Z,100.00
2022-11-21T11:30:16.634Z,100.00
2022-11-21T11:32:50.454Z,100.00
2022-11-21T11:35:28.776Z,100.00
2022-11-21T11:38:05.835Z,100.00
2022-11-21T11:40:43.923Z,100.00
2022-11-21T11:43:49.144Z,100.00
2022-11-21T11:46:55.806Z,100.00
2022-11-21T11:49:57.835Z,100.00
2022-11-21T11:52:37.237Z,100.00
2022-11-21T11:55:19.797Z,100.00
2022-11-21T11:57:57.959Z,100.00
2022-11-21T12:00:40.609Z,99.87
2022-11-21T12:03:19.993Z,98.25
2022-11-21T12:06:03.567Z,96.52
2022-11-21T12:08:54.135Z,94.93
2022-11-21T12:11:52.326Z,90.89
2022-11-21T12:14:57.931Z,87.84
2022-11-21T12:17:38.546Z,85.65
2022-11-21T12:20:18.904Z,90.56
2022-11-21T12:22:55.869Z,93.67
2022-11-21T12:25:34.914Z,97.37
2022-11-21T12:28:20.197Z,90.62
2022-11-21T12:31:04.669Z,87.00
2022-11-21T12:33:47.012Z,85.54
2022-11-21T12:36:35.649Z,88.93
2022-11-21T12:39:34.348Z,87.90
2022-11-21T12:42:34.535Z,95.06
2022-11-21T12:45:27.262Z,97.44
2022-11-21T12:48:33.043Z,97.26
2022-11-21T12:52:00.706Z,99.17
2022-11-21T12:55:01.711Z,98.77
2022-11-21T12:57:47.976Z,98.97
2022-11-21T13:00:28.141Z,99.64
2022-11-21T13:03:39.098Z,99.55
2022-11-21T13:06:18.872Z,99.82
2022-11-21T13:08:55.265Z,99.51
2022-11-21T13:11:52.756Z,99.58
2022-11-21T13:14:32.673Z,99.26
2022-11-21T13:17:23.144Z,97.56
2022-11-21T13:19:59.547Z,96.45
2022-11-21T13:22:57.061Z,95.88
2022-11-21T13:25:47.428Z,96.85
2022-11-21T13:28:37.258Z,97.95
2022-11-21T13:31:34.369Z,100.00
2022-11-21T13:34:35.982Z,100.00
2022-11-21T13:37:09.761Z,100.00
2022-11-21T13:39:43.772Z,100.00
2022-11-21T13:42:35.153Z,100.00
2022-11-21T13:45:43.602Z,100.00
2022-11-21T13:51:56.124Z,100.00
2022-11-21T13:55:02.524Z,100.00
2022-11-21T13:57:53.184Z,100.00
2022-11-21T14:00:43.837Z,100.00
2022-11-21T14:03:50.323Z,100.00
2022-11-21T14:06:35.049Z,100.00
2022-11-21T14:09:21.349Z,100.00
2022-11-21T14:11:58.092Z,100.00
2022-11-21T14:14:37.788Z,100.00
2022-11-21T14:17:36.842Z,100.00
2022-11-21T14:20:17.239Z,100.00
2022-11-21T14:23:04.340Z,100.00
2022-11-21T14:25:49.120Z,100.00
2022-11-21T14:28:25.632Z,100.00
2022-11-21T14:31:02.002Z,100.00
2022-11-21T14:33:37.604Z,100.00
2022-11-21T14:36:15.696Z,100.00
2022-11-21T14:39:13.865Z,100.00
2022-11-21T14:41:50.743Z,100.00
2022-11-21T14:44:24.426Z,100.00
2022-11-21T14:47:15.484Z,100.00
2022-11-21T14:49:52.201Z,100.00
2022-11-21T14:52:29.093Z,100.00
2022-11-21T14:58:03.232Z,100.00
2022-11-21T15:00:58.470Z,100.00
2022-11-21T15:03:32.216Z,100.00
2022-11-21T15:06:11.684Z,100.00
2022-11-21T15:09:33.360Z,100.00
2022-11-21T15:11:48.092Z,100.00
2022-11-21T15:14:26.956Z,100.00
2022-11-21T15:17:04.220Z,100.00
2022-11-21T15:19:39.455Z,100.00
2022-11-21T15:22:25.350Z,100.00
2022-11-21T15:25:08.155Z,100.00
2022-11-21T15:27:42.678Z,100.00
2022-11-21T15:30:27.888Z,100.00
2022-11-21T15:33:04.047Z,100.00
2022-11-21T15:35:47.928Z,100.00
2022-11-21T15:38:28.877Z,100.00
2022-11-21T15:41:11.618Z,100.00
2022-11-21T15:43:48.233Z,100.00
2022-11-21T15:46:23.259Z,100.00
2022-11-21T15:48:58.608Z,100.00
2022-11-21T15:52:05.618Z,100.00
2022-11-21T15:54:29.926Z,100.00
2022-11-21T15:57:03.545Z,100.00
2022-11-21T15:59:37.406Z,100.00
2022-11-21T16:02:14.330Z,100.00
2022-11-21T16:04:49.476Z,100.00
2022-11-21T16:07:24.628Z,100.00
2022-11-21T16:09:58.542Z,100.00
2022-11-21T16:12:32.220Z,100.00
2022-11-21T16:15:06.700Z,100.00
2022-11-21T16:17:41.597Z,100.00
2022-11-21T16:20:15.663Z,100.00
2022-11-21T16:22:50.733Z,100.00
2022-11-21T16:25:25.190Z,100.00
2022-11-21T16:28:02.885Z,100.00
2022-11-21T16:30:39.930Z,100.00
2022-11-21T16:33:13.538Z,100.00
2022-11-21T16:35:47.618Z,100.00
2022-11-21T16:38:23.441Z,100.00
2022-11-21T16:40:59.112Z,100.00
2022-11-21T16:43:33.030Z,100.00
2022-11-21T16:46:09.308Z,100.00
2022-11-21T16:48:42.808Z,100.00
2022-11-21T16:51:19.758Z,100.00
2022-11-21T16:53:54.688Z,100.00
2022-11-21T16:56:29.000Z,100.00
2022-11-21T16:59:02.556Z,100.00
2022-11-21T17:01:36.407Z,100.00
2022-11-21T17:04:15.583Z,100.00
2022-11-21T17:06:51.078Z,100.00
2022-11-21T17:09:26.055Z,100.00
2022-11-21T17:12:00.107Z,100.00
2022-11-21T17:14:33.856Z,100.00
2022-11-21T17:17:07.582Z,100.00
2022-11-21T17:19:41.053Z,100.00
2022-11-21T17:22:16.907Z,100.00
2022-11-21T17:24:54.106Z,100.00
2022-11-21T17:27:28.102Z,100.00
2022-11-21T17:30:01.705Z,100.00
2022-11-21T17:32:36.219Z,100.00
2022-11-21T17:35:11.205Z,100.00
2022-11-21T17:37:45.190Z,100.00
2022-11-21T17:40:20.214Z,100.00
2022-11-21T17:42:53.969Z,100.00
2022-11-21T17:45:27.495Z,100.00
2022-11-21T17:48:01.644Z,100.00
2022-11-21T17:50:35.261Z,100.00
2022-11-21T17:53:09.134Z,100.00
2022-11-21T17:55:44.102Z,100.00
2022-11-21T17:58:17.966Z,100.00
2022-11-21T18:00:55.503Z,100.00
2022-11-21T18:03:30.550Z,100.00
2022-11-21T18:06:06.313Z,100.00
2022-11-21T18:08:42.226Z,100.00
2022-11-21T18:11:21.114Z,100.00
2022-11-21T18:13:55.433Z,100.00
2022-11-21T18:16:31.976Z,100.00
2022-11-21T18:19:05.782Z,100.00
2022-11-21T18:21:39.548Z,100.00
2022-11-21T18:24:13.579Z,100.00
2022-11-21T18:26:48.573Z,100.00
2022-11-21T18:29:39.995Z,100.00
2022-11-21T18:32:13.966Z,100.00
2022-11-21T18:34:47.746Z,100.00
2022-11-21T18:37:21.556Z,100.00
2022-11-21T18:39:55.531Z,100.00
2022-11-21T18:42:32.667Z,100.00
2022-11-21T18:45:08.280Z,100.00
2022-11-21T18:47:42.252Z,100.00
2022-11-21T18:50:16.980Z,100.00
2022-11-21T18:52:50.697Z,100.00
2022-11-21T18:55:27.255Z,100.00
2022-11-21T18:58:02.273Z,100.00
2022-11-21T19:00:36.042Z,100.00
2022-11-21T19:03:11.154Z,100.00
2022-11-21T19:05:44.936Z,100.00
2022-11-21T19:08:18.580Z,100.00
2022-11-21T19:10:52.871Z,100.00
2022-11-21T19:13:29.553Z,100.00
2022-11-21T19:16:03.569Z,100.00
2022-11-21T19:18:41.228Z,100.00
2022-11-21T19:21:17.430Z,100.00
2022-11-21T19:23:51.103Z,100.00
2022-11-21T19:26:25.308Z,100.00
2022-11-21T19:29:00.363Z,100.00
2022-11-21T19:31:37.734Z,100.00
2022-11-21T19:34:14.871Z,100.00
2022-11-21T19:36:48.817Z,100.00
2022-11-21T19:39:22.448Z,100.00
2022-11-21T19:41:56.255Z,100.00
2022-11-21T19:44:31.113Z,100.00
2022-11-21T19:47:04.910Z,100.00
2022-11-21T19:49:38.501Z,100.00
2022-11-21T19:52:12.251Z,100.00
2022-11-21T19:54:46.011Z,100.00
2022-11-21T19:57:20.013Z,100.00
2022-11-21T19:59:54.964Z,100.00
2022-11-21T20:02:28.849Z,100.00
2022-11-21T20:05:02.561Z,100.00
2022-11-21T20:07:36.545Z,100.00
2022-11-21T20:10:10.662Z,100.00
2022-11-21T20:12:44.440Z,100.00
2022-11-21T20:15:19.384Z,100.00
2022-11-21T20:17:53.654Z,100.00
2022-11-21T20:20:27.241Z,100.00
2022-11-21T20:23:01.397Z,100.00
2022-11-21T20:25:35.001Z,100.00
2022-11-21T20:28:11.779Z,100.00
2022-11-21T20:30:47.050Z,100.00
2022-11-21T20:33:20.930Z,100.00
2022-11-21T20:35:54.507Z,100.00
2022-11-21T20:38:28.193Z,100.00
2022-11-21T20:41:02.052Z,100.00
2022-11-21T20:44:10.482Z,100.00
2022-11-21T20:46:30.742Z,100.00
2022-11-21T20:49:04.518Z,100.00
2022-11-21T20:54:32.395Z,100.00
2022-11-21T20:57:10.414Z,100.00
2022-11-21T20:59:48.285Z,100.00
2022-11-21T21:02:23.521Z,100.00
2022-11-21T21:04:57.355Z,100.00
2022-11-21T21:07:30.914Z,100.00
2022-11-21T21:10:05.422Z,100.00
2022-11-21T21:12:39.179Z,100.00
2022-11-21T21:15:14.317Z,100.00
2022-11-21T21:17:49.269Z,100.00
2022-11-21T21:20:23.251Z,100.00
2022-11-21T21:22:56.890Z,100.00
2022-11-21T21:25:30.646Z,100.00
2022-11-21T21:28:04.374Z,100.00
2022-11-21T21:30:40.753Z,100.00
2022-11-21T21:33:16.458Z,100.00
2022-11-21T21:35:50.332Z,100.00
2022-11-21T21:38:23.888Z,100.00
2022-11-21T21:40:57.784Z,100.00
2022-11-21T21:43:31.494Z,100.00
2022-11-21T21:46:06.252Z,100.00
2022-11-21T21:48:42.177Z,100.00
2022-11-21T21:51:18.418Z,100.00
2022-11-21T21:53:53.754Z,100.00
2022-11-21T21:56:29.436Z,100.00
2022-11-21T21:59:03.426Z,100.00
2022-11-21T22:01:37.231Z,100.00
2022-11-21T22:04:13.527Z,100.00
2022-11-21T22:06:47.400Z,100.00
2022-11-21T22:09:21.329Z,100.00
2022-11-21T22:11:55.104Z,100.00
2022-11-21T22:14:29.012Z,100.00
2022-11-21T22:17:03.156Z,100.00
2022-11-21T22:19:38.227Z,100.00
2022-11-21T22:22:12.101Z,100.00
2022-11-21T22:24:45.744Z,100.00
2022-11-21T22:27:19.703Z,100.00
2022-11-21T22:29:53.408Z,100.00
2022-11-21T22:32:27.264Z,100.00
2022-11-21T22:35:02.312Z,100.00
2022-11-21T22:37:36.219Z,100.00
2022-11-21T22:40:10.971Z,100.00
2022-11-21T22:42:44.776Z,100.00
2022-11-21T22:45:18.471Z,100.00
2022-11-21T22:47:52.439Z,100.00
2022-11-21T22:50:27.375Z,100.00
2022-11-21T22:53:01.214Z,100.00
2022-11-21T22:55:34.753Z,100.00
2022-11-21T22:58:08.538Z,100.00
2022-11-21T23:00:42.035Z,100.00
2022-11-21T23:03:16.039Z,100.00
2022-11-21T23:05:59.186Z,100.00
2022-11-21T23:08:33.790Z,100.00
2022-11-21T23:11:09.642Z,100.00
2022-11-21T23:13:45.235Z,100.00
2022-11-21T23:16:19.439Z,100.00
2022-11-21T23:18:53.894Z,100.00
2022-11-21T23:21:28.959Z,100.00
2022-11-21T23:24:02.627Z,100.00
2022-11-21T23:26:36.367Z,100.00
2022-11-21T23:29:10.437Z,100.00
2022-11-21T23:31:43.891Z,100.00
2022-11-21T23:34:17.817Z,100.00
2022-11-21T23:36:53.120Z,100.00
2022-11-21T23:39:27.481Z,100.00
2022-11-21T23:42:01.660Z,100.00
2022-11-21T23:44:35.297Z,100.00
2022-11-21T23:47:08.783Z,100.00
2022-11-21T23:49:46.097Z,100.00
2022-11-21T23:52:24.902Z,100.00
2022-11-21T23:54:58.797Z,100.00
2022-11-21T23:57:32.380Z,100.00
